Aeroporto :
LOGIN :

Iscrizione | Disclaimer

   EN    FR    IT 

 










Sommario :    VFR   VFR Marginale   IFR   IFR Intensivo   IFR Molto Intensivo
Visibilità : 
Base nubi : 
>= 8 km
>= 3000ft
5 / 8 km
1000 / 3000 ft
1500m / 5 km
500 / 1000 ft
800 / 1500m
200 / 500 ft
< 800m
< 200 ft
Simboli :   Temporali  Nebbia  Neve Forte  Precipitazioni Forti  Vento > 20 kt
SIGMETs :   Varie  Temporali  Ghiacco  Turbolenza  Onda orograficha  Ceneri Vulcaniche






- Altitudine del aeroporto : 56 ft
- Codice IATA : BZR


LFMU - Beziers / Vias

ULTIMO METAR :
  • 031230Z AUTO 30019KT CAVOK 27/10 Q1013 BECMG 30020G33KT

METARs OBSOLETI :
  • 031200Z AUTO 29021KT CAVOK 27/11 Q1013 BECMG 30020G33KT
  • 031130Z AUTO 30023KT CAVOK 26/11 Q1013 BECMG 30020G33KT
  • 031100Z AUTO 30019KT CAVOK 27/12 Q1013 BECMG 30020G33KT
  • 031030Z AUTO 29017KT 260V320 CAVOK 26/12 Q1013 BECMG 30020G33KT
  • 031000Z AUTO 28018KT CAVOK 25/12 Q1014 BECMG 30020G33KT

TAF TAF LFMU
Valido dal 03 a 09 ore il 04 a 09 ore UTC


030800Z 0309/0409 30020KT CAVOK
BECMG 0310/0312 30020G33KT
BECMG 0319/0322 29015KT
ATIS : +33 4 67 90 88 88



MetMap, La meteo Aeronautica in un colpo d'occhio ! - Copyright ORBIFLY Dicembre 2007 - Disclaimer

ORBIFLY MET'MAP TEAM :

Programmazione e sviluppo : Alexandra Zaïnal
Concezione : Baudouin d'Aumeries
Aiuto per la programmazione : Marc-Olivier Méhu
Supporto tecnico e logistico : Manuel Goepfert
Aiuto per la traduzione : Arnaldo La Scala

Contatto : metmap@orbifly.com




FONTI E CREDITI :

   NOAA